Aérodrome :
LOGIN :

S'inscrire | Disclaimer

   EN    FR    IT 

 










Légende :    VFR   VFR Marginal   IFR   IFR Intensif   IFR Très Intensif
Visi : 
Plafond : 
>= 8 km
>= 3000ft
5 à 8 km
1000 à 3000 ft
1500m à 5 km
500 à 1000 ft
800 à 1500m
200 à 500 ft
< 800m
< 200 ft
Symboles :   Orages  Brouillard  Fortes neiges  Fortes précipitations  Vent > 20 kt
SIGMETs :   Divers  Orages  Givrage  Turbulence  Onde Orograph.  Cendres Volcan.







- Altitude de l'aérodrome : 1273 ft
- Code IATA : LJU


LJLJ - Ljubljana

DERNIER METAR :
  • 221830Z VRB02KT 9999 FEW020 BKN030 13/12 Q1020 NOSIG

METARs EXPIRÉS :
  • 221800Z 23003KT 9999 FEW020 BKN030 14/11 Q1020 NOSIG
  • 221730Z 20004KT 140V280 9999 FEW020 BKN030 14/11 Q1020 NOSIG
  • 221700Z 19002KT 9999 FEW020 BKN030 15/11 Q1020 NOSIG
  • 221630Z 14005KT 9999 FEW020 BKN030 14/11 Q1020 NOSIG
  • 221600Z 12009KT 9999 BKN020 15/10 Q1019 NOSIG

TAF TAF LJLJ
Valide du 22 à 18h jusqu'au 23 à 18h UTC


221700Z 2218/2318 12005KT 9999 BKN030
BECMG 2218/2221 30002KT FEW040
PROB40 2302/2305 0400 FG BKN001
BECMG 2308/2309 12005KT FEW050
Pas de NOTAMs connus pour ce terrain.



MET'MAP, la Météo Aéronautique d'un coup d'oeil ! - Copyright ORBIFLY Décembre 2007 - Disclaimer

ORBIFLY MET'MAP TEAM :

Programmation & Développement : Alexandra Zaïnal
Conception & Développement : Baudouin d'Aumeries
Co-Programmation & Développement : Marc-Olivier Méhu
Soutien technique & logistique : Manuel Goepfert

Contact : metmap@orbifly.com




SOURCES & CREDITS :

   NOAA